Time;durP1;ratioP1;P1;durP2;ratioP2;P2;SDS_P1;SDS_P2;PMS_P1;PMS_P2;Temp;Humidity;BMP_temperature;BMP_pressure;BME280_temperature;BME280_humidity;BME280_pressure;Samples;Min_cycle;Max_cycle;Signal;HPM_P1;HPM_P2
2022/02/01 00:55:53;;;;;;;0.00;0.00;;;;;;;5.39;51.25;97935.13;4971915;28;20066;-81
2022/02/01 01:11:50;;;;;;;0.00;0.00;;;;;;;5.24;53.30;97921.91;5900443;23;21149;-78
2022/02/01 01:45:19;;;;;;;0.00;0.00;;;;;;;4.89;56.61;97894.41;4973435;28;20109;-80
2022/02/01 02:46:31;;;;;;;0.00;0.00;;;;;;;4.63;59.22;97863.41;5026036;23;20486;-81
2022/02/01 03:24:50;;;;;;;0.00;0.00;;;;;;;4.55;60.23;97871.91;6063553;23;21398;-79
2022/02/01 03:48:38;;;;;;;0.10;0.10;;;;;;;4.38;59.05;97858.13;5326848;23;20157;-82
2022/02/01 05:17:23;;;;;;;0.00;0.00;;;;;;;2.60;57.58;97903.66;5712860;23;20028;31
2022/02/01 05:22:35;;;;;;;0.00;0.00;;;;;;;2.60;57.85;97901.00;5152228;23;20052;-82
2022/02/01 05:25:10;;;;;;;0.00;0.00;;;;;;;2.60;57.72;97893.91;4999336;28;20049;-80
2022/02/01 05:27:58;;;;;;;0.20;0.20;;;;;;;2.62;58.09;97889.16;5015503;28;20054;-76
2022/02/01 05:30:24;;;;;;;;;;;;;;;2.65;58.04;97887.84;4990420;28;20037;-78
2022/02/01 05:32:50;;;;;;;0.00;0.00;;;;;;;2.65;57.97;97883.38;5003692;28;19968;-77
2022/02/01 05:35:15;;;;;;;0.00;0.00;;;;;;;2.67;57.88;97896.31;4998729;28;20033;-77
2022/02/01 05:37:40;;;;;;;0.00;0.00;;;;;;;2.65;57.75;97887.84;4998658;28;20026;-77
2022/02/01 05:40:08;;;;;;;0.00;0.00;;;;;;;2.70;57.80;97890.53;4998315;28;20478;-77
2022/02/01 05:42:47;;;;;;;0.00;0.00;;;;;;;2.69;58.01;97884.44;5015527;28;20030;-78
2022/02/01 05:45:13;;;;;;;0.00;0.00;;;;;;;2.72;57.95;97901.63;4997236;28;20712;-76
2022/02/01 05:47:39;;;;;;;0.00;0.00;;;;;;;2.75;57.58;97903.78;4987868;28;20039;-77
2022/02/01 05:50:05;;;;;;;0.00;0.00;;;;;;;2.75;57.34;97901.13;4977935;28;20084;-77
2022/02/01 05:52:31;;;;;;;0.00;0.00;;;;;;;2.71;57.88;97889.47;4978415;28;20030;-78
2022/02/01 05:54:57;;;;;;;0.00;0.00;;;;;;;2.69;57.46;97878.38;4978250;28;20044;-78
2022/02/01 05:57:25;;;;;;;0.00;0.00;;;;;;;2.72;57.63;97881.31;4996154;28;20045;-78
2022/02/01 05:59:50;;;;;;;0.00;0.00;;;;;;;2.76;57.83;97880.78;4978211;28;20483;-78
2022/02/01 06:02:17;;;;;;;0.00;0.00;;;;;;;2.76;57.78;97875.50;4995655;28;20065;-78
2022/02/01 06:04:43;;;;;;;0.00;0.00;;;;;;;2.77;57.68;97883.22;4978064;28;20125;-78
2022/02/01 06:07:08;;;;;;;0.00;0.00;;;;;;;2.77;57.83;97871.84;4994500;28;20449;-77
2022/02/01 06:09:33;;;;;;;0.00;0.00;;;;;;;2.86;57.97;97894.09;4994873;28;20589;-78
2022/02/01 06:11:59;;;;;;;0.00;0.00;;;;;;;2.87;58.15;97898.31;4975592;28;20034;-77
2022/02/01 06:14:25;;;;;;;0.00;0.00;;;;;;;2.86;58.14;97894.09;4995220;28;20113;-78
2022/02/01 06:16:50;;;;;;;0.00;0.00;;;;;;;2.94;57.67;97900.72;4994558;28;20033;-78
2022/02/01 06:19:15;;;;;;;0.00;0.00;;;;;;;2.96;57.56;97902.06;4977964;28;20061;-78
2022/02/01 06:21:41;;;;;;;0.00;0.00;;;;;;;2.99;57.49;97906.84;4976422;28;20130;-78
2022/02/01 06:24:07;;;;;;;0.00;0.00;;;;;;;3.02;57.44;97911.59;4977759;28;20026;-78
2022/02/01 06:26:33;;;;;;;0.00;0.00;;;;;;;3.09;57.20;97913.22;4977705;28;20087;-78
2022/02/01 06:28:58;;;;;;;0.00;0.00;;;;;;;3.12;57.52;97913.53;4977257;28;20129;-78
2022/02/01 06:31:24;;;;;;;0.00;0.00;;;;;;;3.11;56.98;97921.72;4989803;28;20125;-78
2022/02/01 06:33:49;;;;;;;0.00;0.00;;;;;;;3.13;57.04;97924.91;4974058;28;20042;-78
2022/02/01 06:36:15;;;;;;;0.00;0.00;;;;;;;3.14;57.31;97922.00;4974517;28;20030;-78
2022/02/01 06:38:40;;;;;;;0.00;0.00;;;;;;;3.17;57.33;97902.19;4975168;28;20106;-78
2022/02/01 06:41:06;;;;;;;0.00;0.00;;;;;;;3.16;57.29;97895.31;4975246;28;20041;-78
2022/02/01 06:43:31;;;;;;;0.00;0.00;;;;;;;3.24;57.09;97904.63;4957681;28;20060;-78
2022/02/01 06:45:58;;;;;;;0.00;0.00;;;;;;;3.26;56.92;97905.97;4956257;28;20088;-78
2022/02/01 06:48:24;;;;;;;0.00;0.00;;;;;;;3.28;57.06;97898.53;4957304;28;20404;-78
2022/02/01 06:50:51;;;;;;;0.00;0.00;;;;;;;3.32;56.96;97896.19;4975304;28;20031;-78
2022/02/01 06:53:19;;;;;;;0.00;0.00;;;;;;;3.35;56.87;97900.97;4974119;28;20030;-78
2022/02/01 06:55:59;;;;;;;0.00;0.00;;;;;;;3.38;56.86;97889.09;4956015;28;20035;-78
2022/02/01 06:58:24;;;;;;;0.00;0.00;;;;;;;3.40;57.18;97902.84;4956595;28;20285;-78
2022/02/01 07:00:49;;;;;;;0.00;0.00;;;;;;;3.41;56.89;97901.81;4958003;28;20050;-78
2022/02/01 07:03:15;;;;;;;0.00;0.00;;;;;;;3.38;57.08;97902.31;4958861;28;20107;-78
2022/02/01 07:05:40;;;;;;;0.17;0.17;;;;;;;3.39;56.91;97912.63;4956896;28;20181;-77
2022/02/01 07:08:06;;;;;;;0.45;0.45;;;;;;;3.35;57.45;97914.19;4956648;28;20050;-78
2022/02/01 07:10:32;;;;;;;0.10;0.10;;;;;;;3.34;57.47;97915.25;4957676;28;20462;-78
2022/02/01 07:12:58;;;;;;;2.22;1.85;;;;;;;3.33;57.67;97929.50;4976101;28;20026;-78
2022/02/01 07:15:23;;;;;;;0.00;0.00;;;;;;;3.29;58.08;97923.16;4958055;28;20031;-79
2022/02/01 07:17:54;;;;;;;0.00;0.00;;;;;;;3.30;58.42;97919.44;4957005;28;20519;-78
2022/02/01 07:20:20;;;;;;;0.32;0.32;;;;;;;3.24;58.27;97909.91;4957806;28;20488;-78
2022/02/01 07:22:47;;;;;;;0.00;0.00;;;;;;;3.26;58.08;97918.34;4956393;28;20062;-78
2022/02/01 07:25:29;;;;;;;0.00;0.00;;;;;;;3.24;57.71;97913.34;4937698;29;20031;-77
2022/02/01 07:27:55;;;;;;;0.00;0.00;;;;;;;3.27;57.70;97914.66;4937776;29;20414;-77
2022/02/01 07:30:27;;;;;;;0.00;0.00;;;;;;;3.29;57.63;97916.00;4970170;28;20631;-77
2022/02/01 07:32:54;;;;;;;0.10;0.10;;;;;;;3.30;57.63;97922.09;4938652;28;20042;-78
2022/02/01 07:35:21;;;;;;;0.22;0.22;;;;;;;3.20;57.96;97909.63;4936649;29;20035;-77
2022/02/01 07:37:48;;;;;;;0.00;0.00;;;;;;;3.20;58.61;97910.41;4969315;28;20066;-77
2022/02/01 07:40:13;;;;;;;0.00;0.00;;;;;;;3.17;58.40;97902.19;4937167;29;20038;-77
2022/02/01 07:42:39;;;;;;;0.00;0.00;;;;;;;3.11;58.85;97919.06;4954807;29;20031;-77
2022/02/01 07:45:06;;;;;;;0.00;0.00;;;;;;;2.98;58.95;97912.38;4936685;29;20043;-77
2022/02/01 07:47:32;;;;;;;0.05;0.05;;;;;;;2.92;59.11;97910.75;4937085;29;20122;-77
2022/02/01 07:49:58;;;;;;;0.00;0.00;;;;;;;2.93;59.67;97912.34;4969330;28;20567;-77
2022/02/01 07:52:23;;;;;;;0.00;0.00;;;;;;;2.92;60.02;97916.84;4969408;28;20405;-77
2022/02/01 07:54:49;;;;;;;0.05;0.05;;;;;;;2.92;60.58;97919.47;4954297;29;20460;-77
2022/02/01 07:57:14;;;;;;;0.10;0.10;;;;;;;2.87;61.35;97912.31;4937641;29;20054;-77
2022/02/01 07:59:40;;;;;;;0.20;0.20;;;;;;;2.91;61.87;97917.09;4937683;29;20023;-76
2022/02/01 08:02:17;;;;;;;0.00;0.00;;;;;;;2.94;62.13;97919.22;4953808;29;20098;-77
2022/02/01 08:04:42;;;;;;;0.00;0.00;;;;;;;2.99;63.18;97912.13;4936889;29;20039;-78
2022/02/01 08:07:08;;;;;;;0.00;0.00;;;;;;;3.03;63.69;97918.50;4968922;28;20408;-77
2022/02/01 08:09:37;;;;;;;0.00;0.00;;;;;;;3.06;64.11;97919.81;4954259;29;20039;-78
2022/02/01 08:12:11;;;;;;;0.10;0.10;;;;;;;3.04;63.90;97916.66;4936148;29;20523;-77
2022/02/01 08:20:08;;;;;;;0.00;0.00;;;;;;;3.18;64.22;97928.34;4953599;29;20261;-78
2022/02/01 08:25:13;;;;;;;0.00;0.00;;;;;;;3.06;65.31;97919.03;4953681;29;20032;-78
2022/02/01 08:27:39;;;;;;;0.00;0.00;;;;;;;3.07;65.44;97916.13;4954341;29;20094;-78
2022/02/01 08:30:07;;;;;;;0.00;0.00;;;;;;;2.99;66.10;97916.59;4936524;29;20031;-78
2022/02/01 08:32:33;;;;;;;0.00;0.00;;;;;;;2.95;66.04;97913.66;4936881;29;20027;-78
2022/02/01 08:34:58;;;;;;;0.00;0.00;;;;;;;2.87;66.17;97930.00;4936368;29;20105;-78
2022/02/01 08:37:24;;;;;;;0.00;0.00;;;;;;;2.84;66.49;97931.28;4968567;28;20377;-78
2022/02/01 08:39:49;;;;;;;0.00;0.00;;;;;;;2.73;67.12;97924.34;4935839;29;20035;-78
2022/02/01 08:42:16;;;;;;;0.08;0.08;;;;;;;2.64;67.88;97921.38;4968227;28;20046;-78
2022/02/01 08:44:43;;;;;;;0.93;0.93;;;;;;;2.64;68.49;97931.16;4936360;28;20031;-78
2022/02/01 08:47:09;;;;;;;0.00;0.00;;;;;;;2.58;68.83;97932.16;4939614;29;20023;-78
2022/02/01 08:49:34;;;;;;;1.45;1.35;;;;;;;2.57;68.82;97931.34;4939787;29;20031;-78
2022/02/01 08:52:06;;;;;;;0.00;0.00;;;;;;;2.58;69.39;97948.78;4939495;29;20031;-78
2022/02/01 08:54:34;;;;;;;0.00;0.00;;;;;;;2.54;69.45;97948.47;4939852;29;20455;-78
2022/02/01 09:00:01;;;;;;;0.00;0.00;;;;;;;2.43;70.86;97952.06;4943466;29;20401;-77
2022/02/01 09:02:27;;;;;;;0.00;0.00;;;;;;;2.39;70.88;97959.69;4974850;28;20023;-78
2022/02/01 09:04:53;;;;;;;0.57;0.57;;;;;;;2.34;70.67;97964.13;4976487;28;20035;-78
2022/02/01 09:07:19;;;;;;;0.00;0.00;;;;;;;2.29;71.26;97964.84;4958594;28;20126;-78
2022/02/01 09:09:45;;;;;;;0.10;0.10;;;;;;;2.28;71.93;97957.97;4958435;28;20126;-78
2022/02/01 09:12:10;;;;;;;0.00;0.00;;;;;;;2.30;72.71;97942.72;4975966;28;20038;-78
2022/02/01 09:14:36;;;;;;;0.10;0.10;;;;;;;2.29;72.62;97951.66;4959066;28;20038;-77
2022/02/01 09:17:03;;;;;;;0.05;0.05;;;;;;;2.29;72.15;97946.38;4959606;28;20412;-77
2022/02/01 09:19:30;;;;;;;0.10;0.10;;;;;;;2.27;72.23;97937.94;4959539;28;20042;-77
2022/02/01 09:21:56;;;;;;;0.00;0.00;;;;;;;2.32;73.96;97942.44;4966898;28;20057;-77
2022/02/01 09:24:25;;;;;;;0.20;0.20;;;;;;;2.34;73.18;97943.00;4975489;28;20113;-77
2022/02/01 09:26:51;;;;;;;0.00;0.00;;;;;;;2.38;73.19;97941.44;4975036;28;20042;-78
2022/02/01 09:29:18;;;;;;;0.00;0.00;;;;;;;2.44;73.36;97944.94;4975866;28;20035;-78
2022/02/01 09:31:43;;;;;;;0.00;0.00;;;;;;;2.49;73.32;97934.44;4974319;28;20514;-78
2022/02/01 09:34:09;;;;;;;0.10;0.10;;;;;;;2.53;73.82;97946.09;4974259;28;20058;-78
2022/02/01 09:36:34;;;;;;;0.20;0.20;;;;;;;2.56;73.43;97945.59;4975079;28;20498;-76
2022/02/01 09:39:00;;;;;;;0.00;0.00;;;;;;;2.58;73.41;97948.78;4973963;28;20038;-78
2022/02/01 09:41:29;;;;;;;0.00;0.00;;;;;;;2.60;74.15;97941.41;4976023;28;20023;-78
2022/02/01 09:43:54;;;;;;;0.20;0.20;;;;;;;2.61;74.20;97936.91;4973476;28;20416;-77
2022/02/01 09:46:20;;;;;;;1.55;1.38;;;;;;;2.61;74.62;97934.28;4966344;28;20031;-78
2022/02/01 09:48:46;;;;;;;0.00;0.00;;;;;;;2.60;74.57;97937.97;4954464;29;20023;-79
2022/02/01 09:51:12;;;;;;;0.00;0.00;;;;;;;2.59;75.24;97942.47;4955816;28;20450;-78
2022/02/01 09:53:38;;;;;;;2.10;0.98;;;;;;;2.55;75.43;97936.06;4958689;28;20031;-79
2022/02/01 09:56:04;;;;;;;0.00;0.00;;;;;;;2.59;76.26;97941.63;4969847;28;20073;-78
2022/02/01 09:58:32;;;;;;;0.00;0.00;;;;;;;2.61;76.36;97939.56;4972673;28;20035;-78
2022/02/01 10:01:01;;;;;;;0.00;0.00;;;;;;;2.63;76.41;97934.84;4969944;28;20031;-77
2022/02/01 10:03:27;;;;;;;0.28;0.28;;;;;;;2.63;76.43;97937.47;4974284;28;20137;-78
2022/02/01 10:06:07;;;;;;;0.45;0.45;;;;;;;2.62;77.07;97925.31;4974178;28;20488;-76
2022/02/01 10:08:33;;;;;;;0.00;0.00;;;;;;;2.62;77.26;97926.09;4974143;28;20114;-78
2022/02/01 10:10:59;;;;;;;0.35;0.35;;;;;;;2.63;76.98;97932.97;4992503;28;20050;-79
2022/02/01 10:13:26;;;;;;;0.00;0.00;;;;;;;2.66;77.24;97927.22;4993160;28;20030;-80
2022/02/01 10:16:03;;;;;;;0.00;0.00;;;;;;;2.74;77.21;97939.13;4992522;28;20038;-79
2022/02/01 10:18:34;;;;;;;0.00;0.00;;;;;;;2.76;77.36;97938.88;4992875;28;20113;-79
2022/02/01 10:21:26;;;;;;;0.00;0.00;;;;;;;2.81;77.70;97941.59;4995334;28;20042;-80
2022/02/01 10:23:51;;;;;;;0.00;0.00;;;;;;;2.84;77.09;97943.72;4979378;28;20034;-79
2022/02/01 10:26:22;;;;;;;0.00;0.00;;;;;;;2.88;77.11;97945.59;4964192;28;20030;-75
2022/02/01 10:37:02;;;;;;;0.00;0.00;;;;;;;3.08;77.25;97953.94;4942909;29;20138;-78
2022/02/01 10:39:33;;;;;;;0.00;0.00;;;;;;;3.11;76.93;97959.47;4945996;28;20034;-80
2022/02/01 10:42:02;;;;;;;0.40;0.40;;;;;;;3.13;76.43;97952.09;4938216;28;20031;-80
2022/02/01 10:44:49;;;;;;;0.00;0.00;;;;;;;3.17;76.39;97957.69;4969977;28;20034;-80
2022/02/01 10:47:41;;;;;;;0.00;0.00;;;;;;;3.18;76.11;97954.78;4963308;28;20026;-80
2022/02/01 10:50:28;;;;;;;0.10;0.10;;;;;;;3.17;76.29;97949.75;4964881;28;20055;-78
2022/02/01 10:52:55;;;;;;;0.00;0.00;;;;;;;3.14;77.00;97945.00;4956556;28;20026;-79
2022/02/01 10:55:21;;;;;;;0.00;0.00;;;;;;;3.17;76.51;97944.47;4956640;28;20423;-79
2022/02/01 10:57:47;;;;;;;0.00;0.00;;;;;;;3.21;76.60;97942.91;4957744;28;20432;-78
2022/02/01 11:00:16;;;;;;;0.00;0.00;;;;;;;3.26;76.85;97942.13;4959752;28;20030;-80
2022/02/01 11:02:44;;;;;;;0.00;0.00;;;;;;;3.26;76.64;97939.50;4960488;28;20031;-81
2022/02/01 11:05:11;;;;;;;0.00;0.00;;;;;;;3.31;76.72;97936.91;4956440;28;20085;-79
2022/02/01 11:07:37;;;;;;;0.00;0.00;;;;;;;3.29;76.99;97937.13;4956213;28;20045;-77
2022/02/01 11:10:12;;;;;;;0.00;0.00;;;;;;;3.32;76.82;97936.63;4955451;28;20050;-78
2022/02/01 11:12:39;;;;;;;0.00;0.00;;;;;;;3.35;77.17;97938.75;4956114;28;20113;-79
2022/02/01 11:15:17;;;;;;;0.00;0.00;;;;;;;3.34;77.26;97923.97;4956067;28;20488;-79
2022/02/01 11:17:44;;;;;;;0.00;0.00;;;;;;;3.39;77.05;97941.69;4956270;28;20027;-80
2022/02/01 11:20:11;;;;;;;0.00;0.00;;;;;;;3.42;76.94;97945.66;4959951;28;20116;-80
2022/02/01 11:22:40;;;;;;;0.00;0.00;;;;;;;3.46;77.10;97944.13;4955884;28;20389;-80
2022/02/01 11:25:25;;;;;;;0.00;0.00;;;;;;;3.43;77.14;97940.13;4974326;28;20037;-78
2022/02/01 11:28:00;;;;;;;0.00;0.00;;;;;;;3.46;77.04;97944.13;4965649;28;20027;-83
2022/02/01 11:30:52;;;;;;;0.00;0.00;;;;;;;3.44;77.02;97938.28;4964080;28;20094;-81
2022/02/01 11:33:34;;;;;;;;;;;;;;;3.47;76.71;97940.44;4977076;28;20089;-80
2022/02/01 11:36:05;;;;;;;0.00;0.00;;;;;;;3.42;77.46;97940.38;4955796;28;20406;-80
2022/02/01 11:38:30;;;;;;;0.00;0.00;;;;;;;3.40;76.87;97935.34;4956335;28;20114;-79
2022/02/01 11:41:14;;;;;;;0.00;0.00;;;;;;;3.42;77.06;97932.44;4968379;28;20070;-78
2022/02/01 11:46:20;;;;;;;0.00;0.00;;;;;;;3.39;77.67;97939.03;5499753;23;20065;-78
2022/02/01 11:48:55;;;;;;;0.00;0.00;;;;;;;3.39;77.78;97932.97;4932585;29;20055;-78
2022/02/01 11:52:00;;;;;;;0.00;0.00;;;;;;;3.40;77.55;97924.78;4936370;29;20047;-83
2022/02/01 11:54:49;;;;;;;0.47;0.47;;;;;;;3.43;78.01;97926.09;4929679;29;20083;-80
2022/02/01 11:57:32;;;;;;;0.00;0.00;;;;;;;3.41;77.60;97920.31;4943257;28;20007;-82
2022/02/01 12:00:25;;;;;;;0.00;0.00;;;;;;;3.37;77.65;97917.38;4936683;29;20031;-81
2022/02/01 12:03:04;;;;;;;0.00;0.00;;;;;;;3.34;78.48;97937.19;4917752;29;20527;-82
2022/02/01 12:05:42;;;;;;;;;;;;;;;3.38;78.28;97934.03;4922850;29;20190;-81
2022/02/01 12:08:10;;;;;;;0.57;0.57;;;;;;;3.39;78.32;97930.34;4921228;29;19918;-81
2022/02/01 12:11:05;;;;;;;0.00;0.00;;;;;;;3.23;78.21;97911.75;4958704;29;20027;-86
2022/02/01 12:13:35;;;;;;;0.00;0.00;;;;;;;3.19;78.88;97929.16;4951452;28;20501;-81
2022/02/01 12:16:31;;;;;;;1.90;1.60;;;;;;;3.10;79.26;97941.25;4976363;23;20065;-82
2022/02/01 12:19:36;;;;;;;0.10;0.10;;;;;;;3.04;79.61;97935.16;4975165;28;20046;-78
2022/02/01 12:22:19;;;;;;;0.00;0.00;;;;;;;3.02;79.23;97942.53;4979702;28;20042;-80
2022/02/01 12:24:44;;;;;;;0.00;0.00;;;;;;;2.94;79.01;97951.72;4971231;28;20030;-80
2022/02/01 12:27:10;;;;;;;0.00;0.00;;;;;;;2.93;79.76;97960.69;4971585;28;20022;-78
2022/02/01 12:29:35;;;;;;;0.00;0.00;;;;;;;2.89;79.74;97959.59;4970462;28;20886;-79
2022/02/01 12:32:08;;;;;;;0.00;0.00;;;;;;;2.87;79.80;97959.06;4970859;28;20031;-80
2022/02/01 12:34:35;;;;;;;0.00;0.00;;;;;;;2.89;79.93;97954.31;4970532;28;20027;-80
2022/02/01 12:39:44;;;;;;;0.00;0.00;;;;;;;2.89;79.73;97949.03;5372267;23;20109;-82
2022/02/01 12:51:11;;;;;;;0.00;0.00;;;;;;;2.87;79.00;97965.13;5613973;23;20063;-81
2022/02/01 12:53:48;;;;;;;0.15;0.15;;;;;;;2.83;79.23;97965.88;4952273;29;20689;-79
2022/02/01 12:56:20;;;;;;;0.00;0.00;;;;;;;2.75;79.22;97972.41;4932150;29;20035;-82
2022/02/01 12:58:56;;;;;;;0.00;0.00;;;;;;;2.75;79.01;97987.44;4932598;29;20118;-79
2022/02/01 13:01:29;;;;;;;1.35;1.35;;;;;;;2.70;79.40;97978.44;4935625;29;20428;-82
2022/02/01 13:03:55;;;;;;;0.17;0.17;;;;;;;2.68;79.43;97975.25;4931663;29;20034;-78
2022/02/01 13:06:20;;;;;;;0.05;0.05;;;;;;;2.62;78.93;97976.25;5059877;23;20063;-78
2022/02/01 13:17:35;;;;;;;0.00;0.00;;;;;;;2.49;79.97;98001.22;4953661;28;20031;-80
2022/02/01 13:22:39;;;;;;;0.10;0.10;;;;;;;2.50;80.51;98000.19;4954417;29;20046;-80
2022/02/01 13:25:07;;;;;;;0.17;0.17;;;;;;;2.52;80.47;97989.38;4952059;29;20526;-80
2022/02/01 13:27:34;;;;;;;0.90;0.90;;;;;;;2.52;80.05;97989.38;4952894;29;20023;-78
2022/02/01 13:30:06;;;;;;;0.17;0.17;;;;;;;2.49;80.02;97993.31;4951405;29;20065;-80
2022/02/01 13:32:42;;;;;;;3.20;2.63;;;;;;;2.46;80.00;97990.38;4952566;28;20031;-80
2022/02/01 13:35:10;;;;;;;0.20;0.20;;;;;;;2.48;80.71;97988.25;4954879;29;20499;-79
2022/02/01 13:37:47;;;;;;;0.45;0.45;;;;;;;2.46;80.70;97999.06;4956019;29;20023;-79
2022/02/01 13:40:25;;;;;;;1.08;1.08;;;;;;;2.52;80.60;98005.19;4958658;29;20011;-79
2022/02/01 13:42:52;;;;;;;0.28;0.28;;;;;;;2.51;80.79;98000.97;4961839;29;20031;-79
2022/02/01 13:45:17;;;;;;;0.00;0.00;;;;;;;2.53;80.60;98007.59;4950959;28;20126;-79
2022/02/01 13:47:54;;;;;;;0.00;0.00;;;;;;;2.56;80.39;98014.22;4934039;29;20052;-81
2022/02/01 13:50:26;;;;;;;0.70;0.70;;;;;;;2.59;80.82;98020.81;5025061;23;20014;-82
2022/02/01 13:56:28;;;;;;;1.40;1.33;;;;;;;2.57;80.56;98007.88;4932629;28;20109;-80
2022/02/01 13:59:07;;;;;;;0.00;0.00;;;;;;;2.53;81.11;98004.16;4977070;28;20027;-79
2022/02/01 14:01:32;;;;;;;0.00;0.00;;;;;;;2.53;81.33;98007.59;4966764;28;20038;-79
2022/02/01 14:04:36;;;;;;;0.57;0.57;;;;;;;2.56;81.04;98008.94;4968850;28;20107;-80
2022/02/01 14:07:17;;;;;;;1.00;1.00;;;;;;;2.55;80.87;98008.16;4983946;28;20027;-80
2022/02/01 14:10:15;;;;;;;0.00;0.00;;;;;;;2.56;81.23;98012.38;4958166;28;20034;-81
2022/02/01 14:13:03;;;;;;;1.25;1.25;;;;;;;2.59;81.63;98019.00;4985995;28;20039;-83
2022/02/01 14:26:58;;;;;;;0.52;0.52;;;;;;;2.65;81.16;98035.66;4974228;28;20022;-79
2022/02/01 14:34:38;;;;;;;0.22;0.22;;;;;;;2.59;81.13;98021.63;4972871;28;20062;-81
2022/02/01 14:45:29;;;;;;;0.00;0.00;;;;;;;2.59;81.28;98047.22;4973714;28;20116;-78
2022/02/01 14:47:54;;;;;;;0.00;0.00;;;;;;;2.58;81.57;98059.63;4957131;28;20125;-79
2022/02/01 14:50:19;;;;;;;0.00;0.00;;;;;;;2.55;81.63;98065.41;4974081;28;20038;-80
2022/02/01 14:52:45;;;;;;;0.00;0.00;;;;;;;2.54;81.12;98069.09;4970880;28;20059;-78
2022/02/01 14:55:13;;;;;;;0.30;0.30;;;;;;;2.51;81.47;98056.38;4973514;28;20034;-78
2022/02/01 15:07:00;;;;;;;0.00;0.00;;;;;;;2.53;82.16;98055.09;4973883;28;20518;-77
2022/02/01 15:11:48;;;;;;;0.68;0.60;;;;;;;2.55;82.11;98054.84;4973874;28;20050;-77
2022/02/01 15:14:13;;;;;;;0.00;0.00;;;;;;;2.59;82.15;98058.59;4973518;28;20110;-78
2022/02/01 15:16:39;;;;;;;0.00;0.00;;;;;;;2.57;82.51;98063.31;4973900;28;20180;-77
2022/02/01 15:19:04;;;;;;;0.00;0.00;;;;;;;2.56;82.17;98061.72;4972178;28;20118;-77
2022/02/01 15:21:30;;;;;;;0.00;0.00;;;;;;;2.54;82.02;98075.16;4972309;28;20123;-75
2022/02/01 15:23:56;;;;;;;0.10;0.10;;;;;;;2.58;82.19;98078.13;4973790;28;20499;-77
2022/02/01 15:26:22;;;;;;;0.47;0.47;;;;;;;2.60;82.21;98083.94;4981395;28;20034;-77
2022/02/01 15:28:48;;;;;;;0.10;0.10;;;;;;;2.60;82.89;98089.22;4975281;28;20027;-79
2022/02/01 15:31:39;;;;;;;0.10;0.10;;;;;;;2.58;83.04;98090.53;4974876;28;20471;-85
2022/02/01 15:34:35;;;;;;;0.00;0.00;;;;;;;2.59;82.85;98087.63;5261624;23;20050;-78
2022/02/01 15:37:04;;;;;;;4.00;0.85;;;;;;;2.59;83.18;98092.09;4983046;28;20493;-77
2022/02/01 15:58:17;;;;;;;0.32;0.32;;;;;;;2.52;84.21;98113.41;4979476;28;20035;-81
2022/02/01 16:01:02;;;;;;;0.00;0.00;;;;;;;2.52;84.17;98108.91;4969798;28;20034;-81
2022/02/01 16:03:30;;;;;;;0.00;0.00;;;;;;;2.54;84.12;98113.97;4953032;29;20567;-78
2022/02/01 16:05:58;;;;;;;0.00;0.00;;;;;;;2.54;84.07;98122.69;4953701;28;20050;-78
2022/02/01 16:08:35;;;;;;;0.15;0.15;;;;;;;2.53;84.53;98129.00;4979266;28;20408;-79
2022/02/01 16:11:02;;;;;;;0.00;0.00;;;;;;;2.55;84.30;98131.38;4969179;28;20038;-79
2022/02/01 16:13:43;;;;;;;0.00;0.00;;;;;;;2.49;84.84;98130.53;4972663;28;20110;-78
2022/02/01 16:16:10;;;;;;;0.00;0.00;;;;;;;2.51;85.03;98127.66;4955359;28;20046;-78
2022/02/01 16:18:37;;;;;;;0.00;0.00;;;;;;;2.52;84.56;98147.72;4954610;28;20041;-79
2022/02/01 16:21:05;;;;;;;0.00;0.00;;;;;;;2.47;85.07;98140.53;4952338;28;20038;-79
2022/02/01 16:23:31;;;;;;;0.00;0.00;;;;;;;2.47;85.01;98153.72;4955390;28;20022;-78
2022/02/01 16:25:57;;;;;;;0.00;0.00;;;;;;;2.49;85.41;98154.28;4937003;29;20086;-78
2022/02/01 16:28:22;;;;;;;0.00;0.00;;;;;;;2.46;85.26;98146.84;4935815;29;20035;-78
2022/02/01 16:30:49;;;;;;;0.00;0.00;;;;;;;2.50;85.14;98144.53;4958046;28;20027;-78
2022/02/01 16:33:14;;;;;;;0.00;0.00;;;;;;;2.56;85.22;98165.47;4963512;28;20050;-78
2022/02/01 16:35:39;;;;;;;0.00;0.00;;;;;;;2.56;85.41;98156.75;4939796;28;20035;-79
2022/02/01 16:38:05;;;;;;;0.30;0.30;;;;;;;2.53;85.14;98165.94;4947346;29;20027;-78
2022/02/01 16:40:34;;;;;;;0.30;0.30;;;;;;;2.58;85.32;98169.72;4950204;28;20876;-80
2022/02/01 16:43:06;;;;;;;0.00;0.00;;;;;;;2.59;85.27;98168.66;4940534;29;20416;-80
2022/02/01 16:45:32;;;;;;;0.00;0.00;;;;;;;2.56;85.43;98160.19;5132627;23;20657;-78
2022/02/01 16:48:00;;;;;;;0.00;0.00;;;;;;;2.54;85.59;98138.50;4955763;28;20046;-80
2022/02/01 16:50:27;;;;;;;0.00;0.00;;;;;;;2.54;85.87;98149.06;4965788;28;20039;-82
2022/02/01 16:53:04;;;;;;;0.32;0.32;;;;;;;2.53;85.99;98162.53;4958616;28;20057;-82
2022/02/01 16:55:48;;;;;;;0.00;0.00;;;;;;;2.55;85.77;98168.34;4958436;28;20097;-80
2022/02/01 16:58:31;;;;;;;0.00;0.00;;;;;;;2.55;85.65;98168.34;4965674;28;20038;-82
2022/02/01 17:01:13;;;;;;;0.10;0.10;;;;;;;2.56;85.58;98172.56;4988628;28;20550;-80
2022/02/01 17:03:38;;;;;;;0.75;0.75;;;;;;;2.59;85.89;98177.38;5193400;23;20017;-81
2022/02/01 17:06:51;;;;;;;0.00;0.00;;;;;;;2.62;85.40;98182.16;5141647;23;20021;31
2022/02/01 17:09:28;;;;;;;0.00;0.00;;;;;;;2.59;85.44;98163.38;4951712;28;20131;-82
2022/02/01 17:15:02;;;;;;;0.00;0.00;;;;;;;2.68;84.98;98173.25;5772369;23;20144;-79
2022/02/01 17:22:25;;;;;;;0.00;0.00;;;;;;;2.71;85.00;98171.97;4946118;29;20106;-81
2022/02/01 17:25:03;;;;;;;0.00;0.00;;;;;;;2.72;85.17;98179.66;4945381;29;20062;-83
2022/02/01 17:27:28;;;;;;;0.00;0.00;;;;;;;2.73;85.21;98183.09;4938876;29;20020;-81
2022/02/01 17:29:54;;;;;;;0.00;0.00;;;;;;;2.74;85.10;98181.25;4942682;28;20038;-80
2022/02/01 17:32:19;;;;;;;0.00;0.00;;;;;;;2.77;84.90;98188.66;4935654;29;20030;-80
2022/02/01 17:34:49;;;;;;;0.00;0.00;;;;;;;2.79;84.49;98183.94;4947572;29;20038;-81
2022/02/01 17:37:14;;;;;;;0.00;0.00;;;;;;;2.83;84.83;98177.94;4946254;29;20031;-79
2022/02/01 17:39:40;;;;;;;0.00;0.00;;;;;;;2.86;84.75;98169.50;4942178;29;20034;-79
2022/02/01 17:42:07;;;;;;;0.00;0.00;;;;;;;2.87;84.37;98175.59;4936763;29;20023;-76
2022/02/01 17:44:33;;;;;;;0.00;0.00;;;;;;;2.87;84.31;98176.38;4931447;29;20103;-80
2022/02/01 17:46:58;;;;;;;1.00;1.00;;;;;;;2.91;84.41;98181.97;4931308;29;20039;-79
2022/02/01 17:49:23;;;;;;;0.98;0.82;;;;;;;2.90;84.13;98185.66;4943639;28;20037;-80
2022/02/01 17:54:25;;;;;;;0.00;0.00;;;;;;;2.87;84.33;98171.09;4954268;29;20024;-78
2022/02/01 17:56:53;;;;;;;0.00;0.00;;;;;;;2.89;84.19;98176.13;4929528;29;20494;-81
2022/02/01 18:02:53;;;;;;;0.00;0.00;;;;;;;2.90;83.87;98172.44;5205703;23;20117;-79
2022/02/01 18:05:44;;;;;;;0.00;0.00;;;;;;;2.93;84.42;98177.25;4969416;28;20022;-82
2022/02/01 18:08:11;;;;;;;0.00;0.00;;;;;;;2.89;84.06;98168.22;4987414;28;20035;-82
2022/02/01 18:17:18;;;;;;;0.28;0.28;;;;;;;2.87;84.62;98168.47;4975135;28;20039;-82
2022/02/01 18:20:08;;;;;;;0.00;0.00;;;;;;;2.84;84.26;98178.72;4988276;28;20043;-83
2022/02/01 18:31:34;;;;;;;0.10;0.10;;;;;;;2.77;85.42;98178.94;6093471;23;21093;-79
2022/02/01 18:34:05;;;;;;;0.20;0.20;;;;;;;2.75;85.57;98185.47;4958553;29;20414;-82
2022/02/01 18:36:37;;;;;;;0.00;0.00;;;;;;;2.69;85.87;98197.81;4937479;29;20445;-83
2022/02/01 18:39:22;;;;;;;0.00;0.00;;;;;;;2.72;85.53;98199.97;4963494;28;20034;-79
2022/02/01 19:18:42;;;;;;;0.08;0.08;;;;;;;2.77;86.59;98215.06;5235075;23;20046;-82
2022/02/01 19:21:52;;;;;;;0.30;0.30;;;;;;;2.68;86.60;98207.56;5073408;23;20054;-83
2022/02/01 19:24:27;;;;;;;0.10;0.10;;;;;;;2.76;86.52;98232.78;5005081;23;20047;-81
2022/02/01 19:30:00;;;;;;;0.00;0.00;;;;;;;2.82;86.16;98244.19;5277048;23;20054;-83
2022/02/01 19:39:32;;;;;;;0.00;0.00;;;;;;;2.77;86.64;98226.44;5995528;23;20085;-83
2022/02/01 19:42:16;;;;;;;0.00;0.00;;;;;;;2.74;86.62;98213.72;4967423;28;20091;-83
2022/02/01 22:47:05;;;;;;;0.00;0.00;;;;;;;2.40;88.89;98201.44;5578852;23;20071;-84
2022/02/01 23:06:14;;;;;;;0.00;0.00;;;;;;;2.54;87.97;98196.59;5777797;23;20142;-79
